
Distance (Route):
Temperature : -14.5°C
Humidity : 44.5%
Pressure : 0hPa| Receiver | Frames | First received | Last received |
|---|---|---|---|
| KE7DJD | 378 | 2026-08-30 23:04:27 | 2026-08-31 01:17:09 |
| Receiver | Date | Latitude | Longitude | Direction | Speed | Altitude | Climb | Temperature | Humidity | Pressure | Voltage | Killtimer | Uptime | BKT | XDATA |
|---|---|---|---|---|---|---|---|---|---|---|---|---|---|---|---|
| KE7DJD | 2026-08-31 01:17:09 | 43.56331 | -115.33124 | 89° | 60km/h | 6346m | -5.6m/s | -14.5°C | 44.5% | 0hPa | 0V | 07:51:00 | 00:00:00 | 00:00:00 | |
| KE7DJD | 2026-08-31 01:16:50 | 43.56316 | -115.33533 | 86° | 60km/h | 6460m | -5.6m/s | -15.4°C | 45.9% | 0hPa | 0V | 07:51:00 | 00:00:00 | 00:00:00 | |
| KE7DJD | 2026-08-31 01:16:28 | 43.56317 | -115.33973 | 95° | 57km/h | 6579m | -5.6m/s | -16.3°C | 48.4% | 0hPa | 0V | 07:52:00 | 00:00:00 | 00:00:00 | |
| KE7DJD | 2026-08-31 01:16:08 | 43.56334 | -115.34361 | 97° | 57km/h | 6690m | -5.6m/s | -17.0°C | 53.0% | 0hPa | 0V | 07:52:00 | 00:00:00 | 00:00:00 | |
| KE7DJD | 2026-08-31 01:15:47 | 43.56356 | -115.34729 | 98° | 49km/h | 6807m | -5.5m/s | -17.8°C | 50.6% | 0hPa | 0V | 07:52:00 | 00:00:00 | 00:00:00 | |
| KE7DJD | 2026-08-31 01:15:28 | 43.56371 | -115.35074 | 91° | 49km/h | 6919m | -5.6m/s | -18.5°C | 52.4% | 0hPa | 0V | 07:53:00 | 00:00:00 | 00:00:00 | |
| KE7DJD | 2026-08-31 01:15:07 | 43.56368 | -115.35451 | 92° | 57km/h | 7033m | -5.6m/s | -18.9°C | 50.5% | 0hPa | 0V | 07:53:00 | 00:00:00 | 00:00:00 | |
| KE7DJD | 2026-08-31 01:14:46 | 43.56380 | -115.35889 | 97° | 62km/h | 7151m | -5.6m/s | -19.5°C | 49.8% | 0hPa | 0V | 07:53:00 | 00:00:00 | 00:00:00 | |
| KE7DJD | 2026-08-31 01:14:26 | 43.56397 | -115.36339 | 93° | 68km/h | 7266m | -5.8m/s | -20.2°C | 52.3% | 0hPa | 0V | 07:53:00 | 00:00:00 | 00:00:00 | |
| KE7DJD | 2026-08-31 01:14:06 | 43.56416 | -115.36839 | 90° | 68km/h | 7384m | -5.7m/s | -20.7°C | 51.0% | 0hPa | 0V | 07:53:00 | 00:00:00 | 00:00:00 | |
| KE7DJD | 2026-08-31 01:13:44 | 43.56404 | -115.37331 | 88° | 62km/h | 7504m | -5.7m/s | -21.5°C | 51.5% | 0hPa | 0V | 07:54:00 | 00:00:00 | 00:00:00 | |
| KE7DJD | 2026-08-31 01:13:23 | 43.56396 | -115.37807 | 89° | 66km/h | 7622m | -5.6m/s | -22.4°C | 58.5% | 0hPa | 0V | 07:54:00 | 00:00:00 | 00:00:00 | |
| KE7DJD | 2026-08-31 01:13:03 | 43.56401 | -115.38282 | 96° | 64km/h | 7740m | -5.6m/s | -23.3°C | 58.3% | 0hPa | 0V | 07:55:00 | 00:00:00 | 00:00:00 | |
| KE7DJD | 2026-08-31 01:12:42 | 43.56427 | -115.38741 | 96° | 68km/h | 7853m | -5.6m/s | -24.1°C | 59.8% | 0hPa | 0V | 07:55:00 | 00:00:00 | 00:00:00 | |
| KE7DJD | 2026-08-31 01:12:21 | 43.56456 | -115.39218 | 92° | 66km/h | 7971m | -5.5m/s | -25.0°C | 62.5% | 0hPa | 0V | 07:55:00 | 00:00:00 | 00:00:00 | |
| KE7DJD | 2026-08-31 01:12:00 | 43.56483 | -115.39704 | 95° | 66km/h | 8088m | -5.5m/s | -25.9°C | 62.2% | 0hPa | 0V | 07:56:00 | 00:00:00 | 00:00:00 | |
| KE7DJD | 2026-08-31 01:11:39 | 43.56496 | -115.40193 | 93° | 69km/h | 8203m | -5.4m/s | -26.8°C | 60.3% | 0hPa | 0V | 07:56:00 | 00:00:00 | 00:00:00 | |
| KE7DJD | 2026-08-31 01:11:18 | 43.56504 | -115.40684 | 92° | 73km/h | 8317m | -5.3m/s | -27.5°C | 63.2% | 0hPa | 0V | 07:57:00 | 00:00:00 | 00:00:00 | |
| KE7DJD | 2026-08-31 01:10:57 | 43.56517 | -115.41199 | 94° | 68km/h | 8431m | -5.3m/s | -28.2°C | 60.3% | 0hPa | 0V | 07:57:00 | 00:00:00 | 00:00:00 | |
| KE7DJD | 2026-08-31 01:10:36 | 43.56532 | -115.41727 | 94° | 75km/h | 8544m | -5.4m/s | -29.2°C | 65.6% | 0hPa | 0V | 07:58:00 | 00:00:00 | 00:00:00 | |
| KE7DJD | 2026-08-31 01:10:15 | 43.56551 | -115.42252 | 93° | 71km/h | 8655m | -5.3m/s | -30.3°C | 67.9% | 0hPa | 0V | 07:58:00 | 00:00:00 | 00:00:00 | |
| KE7DJD | 2026-08-31 01:09:55 | 43.56569 | -115.42759 | 97° | 73km/h | 8761m | -5.4m/s | -31.1°C | 72.1% | 0hPa | 0V | 07:58:00 | 00:00:00 | 00:00:00 | |
| KE7DJD | 2026-08-31 01:09:35 | 43.56587 | -115.43294 | 94° | 73km/h | 8873m | -5.4m/s | -32.1°C | 73.0% | 0hPa | 0V | 07:59:00 | 00:00:00 | 00:00:00 | |
| KE7DJD | 2026-08-31 01:09:13 | 43.56603 | -115.43823 | 95° | 69km/h | 8988m | -5.6m/s | -33.0°C | 73.6% | 0hPa | 0V | 07:59:00 | 00:00:00 | 00:00:00 | |
| KE7DJD | 2026-08-31 01:08:53 | 43.56625 | -115.44322 | 96° | 71km/h | 9099m | -5.5m/s | -33.8°C | 72.9% | 0hPa | 0V | 07:59:00 | 00:00:00 | 00:00:00 | |
| KE7DJD | 2026-08-31 01:08:32 | 43.56668 | -115.44840 | 100° | 71km/h | 9215m | -5.6m/s | -34.8°C | 73.3% | 0hPa | 0V | 07:59:00 | 00:00:00 | 00:00:00 | |
| KE7DJD | 2026-08-31 01:08:12 | 43.56719 | -115.45326 | 102° | 71km/h | 9327m | -5.6m/s | -35.8°C | 73.5% | 0hPa | 0V | 07:59:00 | 00:00:00 | 00:00:00 | |
| KE7DJD | 2026-08-31 01:07:51 | 43.56793 | -115.45816 | 106° | 71km/h | 9446m | -5.7m/s | -36.7°C | 62.2% | 0hPa | 0V | 08:00:00 | 00:00:00 | 00:00:00 | |
| KE7DJD | 2026-08-31 01:07:30 | 43.56882 | -115.46305 | 107° | 69km/h | 9568m | -5.8m/s | -37.6°C | 57.6% | 0hPa | 0V | 08:00:00 | 00:00:00 | 00:00:00 | |
| KE7DJD | 2026-08-31 01:07:10 | 43.56964 | -115.46767 | 105° | 69km/h | 9684m | -6.0m/s | -38.6°C | 53.2% | 0hPa | 0V | 08:01:00 | 00:00:00 | 00:00:00 | |
| KE7DJD | 2026-08-31 01:06:49 | 43.57040 | -115.47259 | 101° | 71km/h | 9810m | -6.0m/s | -39.6°C | 42.1% | 0hPa | 0V | 08:01:00 | 00:00:00 | 00:00:00 | |
| KE7DJD | 2026-08-31 01:06:29 | 43.57104 | -115.47711 | 99° | 62km/h | 9931m | -6.1m/s | -40.4°C | 31.5% | 0hPa | 0V | 08:01:00 | 00:00:00 | 00:00:00 | |
| KE7DJD | 2026-08-31 01:06:09 | 43.57168 | -115.48156 | 103° | 68km/h | 10054m | -6.2m/s | -41.4°C | 33.2% | 0hPa | 0V | 08:02:00 | 00:00:00 | 00:00:00 | |
| KE7DJD | 2026-08-31 01:05:49 | 43.57242 | -115.48610 | 102° | 64km/h | 10186m | -6.3m/s | -42.5°C | 38.8% | 0hPa | 0V | 08:02:00 | 00:00:00 | 00:00:00 | |
| KE7DJD | 2026-08-31 01:05:27 | 43.57316 | -115.49053 | 105° | 62km/h | 10319m | -6.5m/s | -43.8°C | 46.7% | 0hPa | 0V | 08:03:00 | 00:00:00 | 00:00:00 | |
| KE7DJD | 2026-08-31 01:05:06 | 43.57413 | -115.49486 | 110° | 60km/h | 10455m | -6.6m/s | -45.0°C | 51.4% | 0hPa | 0V | 08:03:00 | 00:00:00 | 00:00:00 | |
| KE7DJD | 2026-08-31 01:04:46 | 43.57536 | -115.49891 | 114° | 64km/h | 10588m | -6.7m/s | -46.2°C | 50.4% | 0hPa | 0V | 08:03:00 | 00:00:00 | 00:00:00 | |
| KE7DJD | 2026-08-31 01:04:25 | 43.57684 | -115.50307 | 121° | 64km/h | 10728m | -6.7m/s | -47.3°C | 42.2% | 0hPa | 0V | 08:04:00 | 00:00:00 | 00:00:00 | |
| KE7DJD | 2026-08-31 01:04:04 | 43.57836 | -115.50717 | 115° | 66km/h | 10870m | -6.8m/s | -48.3°C | 37.7% | 0hPa | 0V | 08:04:00 | 00:00:00 | 00:00:00 | |
| KE7DJD | 2026-08-31 01:03:43 | 43.57971 | -115.51138 | 114° | 58km/h | 11015m | -7.0m/s | -49.5°C | 34.9% | 0hPa | 0V | 08:05:00 | 00:00:00 | 00:00:00 | |
| KE7DJD | 2026-08-31 01:03:23 | 43.58084 | -115.51527 | 111° | 57km/h | 11153m | -6.9m/s | -50.6°C | 34.3% | 0hPa | 0V | 08:05:00 | 00:00:00 | 00:00:00 | |
| KE7DJD | 2026-08-31 01:03:02 | 43.58200 | -115.51921 | 111° | 53km/h | 11300m | -6.9m/s | -51.7°C | 34.9% | 0hPa | 0V | 08:05:00 | 00:00:00 | 00:00:00 | |
| KE7DJD | 2026-08-31 01:02:42 | 43.58329 | -115.52273 | 119° | 57km/h | 11441m | -7.2m/s | -52.8°C | 37.3% | 0hPa | 0V | 08:05:00 | 00:00:00 | 00:00:00 | |
| KE7DJD | 2026-08-31 01:02:22 | 43.58480 | -115.52618 | 122° | 57km/h | 11584m | -7.1m/s | -54.1°C | 40.4% | 0hPa | 0V | 08:05:00 | 00:00:00 | 00:00:00 | |
| KE7DJD | 2026-08-31 01:02:01 | 43.58660 | -115.52955 | 131° | 58km/h | 11737m | -7.3m/s | -55.3°C | 40.3% | 0hPa | 0V | 08:06:00 | 00:00:00 | 00:00:00 | |
| KE7DJD | 2026-08-31 01:01:40 | 43.58845 | -115.53287 | 128° | 60km/h | 11890m | -7.4m/s | -56.6°C | 40.5% | 0hPa | 0V | 08:06:00 | 00:00:00 | 00:00:00 | |
| KE7DJD | 2026-08-31 01:01:20 | 43.59040 | -115.53599 | 131° | 58km/h | 12036m | -7.3m/s | -57.8°C | 38.6% | 0hPa | 0V | 08:06:00 | 00:00:00 | 00:00:00 | |
| KE7DJD | 2026-08-31 01:00:59 | 43.59217 | -115.53932 | 124° | 51km/h | 12187m | -7.3m/s | -58.6°C | 37.7% | 0hPa | 0V | 08:07:00 | 00:00:00 | 00:00:00 | |
| KE7DJD | 2026-08-31 01:00:18 | 43.59306 | -115.54611 | 89° | 58km/h | 12483m | -7.1m/s | -58.9°C | 22.6% | 0hPa | 0V | 08:08:00 | 00:00:00 | 00:00:00 | |
| KE7DJD | 2026-08-31 00:59:57 | 43.59301 | -115.55045 | 98° | 58km/h | 12635m | -7.1m/s | -58.6°C | 16.9% | 0hPa | 0V | 08:08:00 | 00:00:00 | 00:00:00 | |
| KE7DJD | 2026-08-31 00:59:37 | 43.59401 | -115.55460 | 113° | 58km/h | 12780m | -7.4m/s | -57.5°C | 10.7% | 0hPa | 0V | 08:08:00 | 00:00:00 | 00:00:00 | |
| KE7DJD | 2026-08-31 00:59:17 | 43.59466 | -115.55794 | 91° | 46km/h | 12937m | -7.5m/s | -56.0°C | 7.9% | 0hPa | 0V | 08:09:00 | 00:00:00 | 00:00:00 | |
| KE7DJD | 2026-08-31 00:58:56 | 43.59443 | -115.56136 | 85° | 49km/h | 13088m | -7.5m/s | -56.6°C | 7.5% | 0hPa | 0V | 08:09:00 | 00:00:00 | 00:00:00 | |
| KE7DJD | 2026-08-31 00:58:35 | 43.59389 | -115.56543 | 80° | 64km/h | 13246m | -7.6m/s | -57.9°C | 6.8% | 0hPa | 0V | 08:10:00 | 00:00:00 | 00:00:00 | |
| KE7DJD | 2026-08-31 00:58:15 | 43.59360 | -115.57047 | 87° | 71km/h | 13408m | -7.8m/s | -58.0°C | 5.6% | 0hPa | 0V | 08:10:00 | 00:00:00 | 00:00:00 | |
| KE7DJD | 2026-08-31 00:57:53 | 43.59400 | -115.57539 | 100° | 57km/h | 13573m | -8.2m/s | -57.4°C | 4.5% | 0hPa | 0V | 08:10:00 | 00:00:00 | 00:00:00 | |
| KE7DJD | 2026-08-31 00:57:33 | 43.59380 | -115.57920 | 79° | 58km/h | 13734m | -8.0m/s | -56.8°C | 3.9% | 0hPa | 0V | 08:10:00 | 00:00:00 | 00:00:00 | |
| KE7DJD | 2026-08-31 00:57:12 | 43.59332 | -115.58383 | 85° | 64km/h | 13904m | -8.3m/s | -56.3°C | 3.3% | 0hPa | 0V | 08:10:00 | 00:00:00 | 00:00:00 | |
| KE7DJD | 2026-08-31 00:56:52 | 43.59323 | -115.58782 | 88° | 57km/h | 14071m | -8.5m/s | -56.9°C | 3.3% | 0hPa | 0V | 08:11:00 | 00:00:00 | 00:00:00 | |
| KE7DJD | 2026-08-31 00:56:31 | 43.59290 | -115.59208 | 89° | 58km/h | 14250m | -8.4m/s | -57.7°C | 3.3% | 0hPa | 0V | 08:11:00 | 00:00:00 | 00:00:00 | |
| KE7DJD | 2026-08-31 00:56:10 | 43.59268 | -115.59623 | 81° | 55km/h | 14427m | -8.4m/s | -57.6°C | 2.9% | 0hPa | 0V | 08:12:00 | 00:00:00 | 00:00:00 | |
| KE7DJD | 2026-08-31 00:55:50 | 43.59189 | -115.59995 | 81° | 57km/h | 14597m | -8.6m/s | -58.4°C | 2.7% | 0hPa | 0V | 08:12:00 | 00:00:00 | 00:00:00 | |
| KE7DJD | 2026-08-31 00:55:29 | 43.59129 | -115.60372 | 76° | 53km/h | 14781m | -8.7m/s | -56.8°C | 2.1% | 0hPa | 0V | 08:12:00 | 00:00:00 | 00:00:00 | |
| KE7DJD | 2026-08-31 00:55:09 | 43.59059 | -115.60743 | 84° | 57km/h | 14957m | -8.8m/s | -56.8°C | 2.0% | 0hPa | 0V | 08:13:00 | 00:00:00 | 00:00:00 | |
| KE7DJD | 2026-08-31 00:54:48 | 43.58989 | -115.61150 | 76° | 55km/h | 15147m | -9.3m/s | -55.9°C | 1.8% | 0hPa | 0V | 08:13:00 | 00:00:00 | 00:00:00 | |
| KE7DJD | 2026-08-31 00:54:28 | 43.58910 | -115.61484 | 64° | 46km/h | 15331m | -9.1m/s | -56.1°C | 1.8% | 0hPa | 0V | 08:14:00 | 00:00:00 | 00:00:00 | |
| KE7DJD | 2026-08-31 00:54:08 | 43.58793 | -115.61831 | 69° | 51km/h | 15528m | -9.6m/s | -56.3°C | 1.7% | 0hPa | 0V | 08:14:00 | 00:00:00 | 00:00:00 | |
| KE7DJD | 2026-08-31 00:53:46 | 43.58696 | -115.62181 | 72° | 53km/h | 15730m | -9.8m/s | -56.2°C | 1.7% | 0hPa | 0V | 08:14:00 | 00:00:00 | 00:00:00 | |
| KE7DJD | 2026-08-31 00:53:27 | 43.58653 | -115.62560 | 89° | 49km/h | 15928m | -10.2m/s | -55.8°C | 1.7% | 0hPa | 0V | 08:15:00 | 00:00:00 | 00:00:00 | |
| KE7DJD | 2026-08-31 00:53:05 | 43.58628 | -115.62851 | 73° | 33km/h | 16140m | -10.2m/s | -55.6°C | 1.6% | 0hPa | 0V | 08:15:00 | 00:00:00 | 00:00:00 | |
| KE7DJD | 2026-08-31 00:52:45 | 43.58536 | -115.63106 | 60° | 46km/h | 16348m | -10.2m/s | -56.8°C | 1.7% | 0hPa | 0V | 08:16:00 | 00:00:00 | 00:00:00 | |
| KE7DJD | 2026-08-31 00:52:24 | 43.58423 | -115.63441 | 76° | 49km/h | 16574m | -10.8m/s | -57.2°C | 1.8% | 0hPa | 0V | 08:16:00 | 00:00:00 | 00:00:00 | |
| KE7DJD | 2026-08-31 00:52:03 | 43.58385 | -115.63759 | 82° | 37km/h | 16805m | -10.9m/s | -56.2°C | 1.6% | 0hPa | 0V | 08:16:00 | 00:00:00 | 00:00:00 | |
| KE7DJD | 2026-08-31 00:51:43 | 43.58362 | -115.64027 | 85° | 35km/h | 17024m | -10.7m/s | -55.3°C | 1.5% | 0hPa | 0V | 08:16:00 | 00:00:00 | 00:00:00 | |
| KE7DJD | 2026-08-31 00:51:22 | 43.58305 | -115.64223 | 46° | 33km/h | 17251m | -11.1m/s | -55.3°C | 1.4% | 0hPa | 0V | 08:16:00 | 00:00:00 | 00:00:00 | |
| KE7DJD | 2026-08-31 00:51:01 | 43.58130 | -115.64406 | 43° | 47km/h | 17478m | -10.7m/s | -55.6°C | 1.5% | 0hPa | 0V | 08:17:00 | 00:00:00 | 00:00:00 | |
| KE7DJD | 2026-08-31 00:50:40 | 43.57988 | -115.64657 | 66° | 33km/h | 17707m | -11.0m/s | -55.2°C | 1.5% | 0hPa | 0V | 08:17:00 | 00:00:00 | 00:00:00 | |
| KE7DJD | 2026-08-31 00:50:20 | 43.57873 | -115.64823 | 45° | 33km/h | 17933m | -11.9m/s | -55.4°C | 1.4% | 0hPa | 0V | 08:17:00 | 00:00:00 | 00:00:00 | |
| KE7DJD | 2026-08-31 00:49:59 | 43.57782 | -115.65017 | 64° | 26km/h | 18181m | -12.2m/s | -56.2°C | 1.5% | 0hPa | 0V | 08:18:00 | 00:00:00 | 00:00:00 | |
| KE7DJD | 2026-08-31 00:49:38 | 43.57710 | -115.65080 | 346° | 22km/h | 18439m | -11.9m/s | -56.4°C | 1.4% | 0hPa | 0V | 08:18:00 | 00:00:00 | 00:00:00 | |
| KE7DJD | 2026-08-31 00:49:17 | 43.57616 | -115.65065 | 12° | 24km/h | 18695m | -12.0m/s | -57.9°C | 1.6% | 0hPa | 0V | 00:00:00 | 00:00:00 | 00:00:00 | |
| KE7DJD | 2026-08-31 00:48:57 | 43.57537 | -115.65129 | 57° | 15km/h | 18947m | -12.8m/s | -57.3°C | 1.5% | 0hPa | 0V | 00:00:00 | 00:00:00 | 00:00:00 | |
| KE7DJD | 2026-08-31 00:48:35 | 43.57469 | -115.65173 | 21° | 27km/h | 19230m | -13.1m/s | -57.9°C | 1.5% | 0hPa | 0V | 00:00:00 | 00:00:00 | 00:00:00 | |
| KE7DJD | 2026-08-31 00:48:14 | 43.57318 | -115.65273 | 48° | 31km/h | 19504m | -13.6m/s | -56.7°C | 1.5% | 0hPa | 0V | 08:20:00 | 00:00:00 | 00:00:00 | |
| KE7DJD | 2026-08-31 00:47:53 | 43.57242 | -115.65494 | 75° | 29km/h | 19787m | -14.1m/s | -55.3°C | 1.4% | 0hPa | 0V | 08:20:00 | 00:00:00 | 00:00:00 | |
| KE7DJD | 2026-08-31 00:47:33 | 43.57245 | -115.65576 | 305° | 2km/h | 20067m | -14.2m/s | -52.9°C | 1.2% | 0hPa | 0V | 08:21:00 | 00:00:00 | 00:00:00 | |
| KE7DJD | 2026-08-31 00:47:13 | 43.57246 | -115.65495 | 340° | 9km/h | 20348m | -13.6m/s | -53.0°C | 1.2% | 0hPa | 0V | 08:21:00 | 00:00:00 | 00:00:00 | |
| KE7DJD | 2026-08-31 00:46:52 | 43.57167 | -115.65501 | 33° | 16km/h | 20649m | -14.9m/s | -54.2°C | 1.2% | 0hPa | 0V | 08:21:00 | 00:00:00 | 00:00:00 | |
| KE7DJD | 2026-08-31 00:46:32 | 43.57147 | -115.65593 | 97° | 20km/h | 20944m | -14.4m/s | -56.3°C | 1.4% | 0hPa | 0V | 08:22:00 | 00:00:00 | 00:00:00 | |
| KE7DJD | 2026-08-31 00:46:11 | 43.57141 | -115.65636 | 20° | 16km/h | 21261m | -15.3m/s | -55.5°C | 1.4% | 0hPa | 0V | 08:22:00 | 00:00:00 | 00:00:00 | |
| KE7DJD | 2026-08-31 00:45:51 | 43.57085 | -115.65739 | 70° | 15km/h | 21553m | -14.9m/s | -54.6°C | 1.3% | 0hPa | 0V | 08:22:00 | 00:00:00 | 00:00:00 | |
| KE7DJD | 2026-08-31 00:45:31 | 43.57094 | -115.65840 | 182° | 7km/h | 21849m | -14.9m/s | -54.3°C | 1.2% | 0hPa | 0V | 08:22:00 | 00:00:00 | 00:00:00 | |
| KE7DJD | 2026-08-31 00:45:10 | 43.57114 | -115.65898 | 133° | 4km/h | 22168m | -15.3m/s | -53.7°C | 1.2% | 0hPa | 0V | 08:22:00 | 00:00:00 | 00:00:00 | |
| KE7DJD | 2026-08-31 00:44:49 | 43.57095 | -115.65910 | 359° | 7km/h | 22491m | -14.9m/s | -52.6°C | 1.1% | 0hPa | 0V | 08:23:00 | 00:00:00 | 00:00:00 | |
| KE7DJD | 2026-08-31 00:44:28 | 43.57058 | -115.65887 | 300° | 9km/h | 22823m | -15.8m/s | -52.4°C | 1.1% | 0hPa | 0V | 08:23:00 | 00:00:00 | 00:00:00 | |
| KE7DJD | 2026-08-31 00:44:08 | 43.57058 | -115.65809 | 301° | 18km/h | 23145m | -16.3m/s | -52.5°C | 1.0% | 0hPa | 0V | 08:24:00 | 00:00:00 | 00:00:00 | |
| KE7DJD | 2026-08-31 00:43:48 | 43.56934 | -115.65736 | 13° | 29km/h | 23474m | -16.8m/s | -52.3°C | 1.1% | 0hPa | 0V | 08:24:00 | 00:00:00 | 00:00:00 | |
| KE7DJD | 2026-08-31 00:43:27 | 43.56795 | -115.65829 | 52° | 26km/h | 23834m | -17.4m/s | -51.1°C | 1.0% | 0hPa | 0V | 08:24:00 | 00:00:00 | 00:00:00 | |
| KE7DJD | 2026-08-31 00:43:07 | 43.56749 | -115.65887 | 305° | 7km/h | 24184m | -16.6m/s | -49.5°C | 0.9% | 0hPa | 0V | 08:25:00 | 00:00:00 | 00:00:00 | |
| KE7DJD | 2026-08-31 00:42:45 | 43.56711 | -115.65942 | 65° | 15km/h | 24575m | -16.8m/s | -48.2°C | 0.8% | 0hPa | 0V | 08:25:00 | 00:00:00 | 00:00:00 | |
| KE7DJD | 2026-08-31 00:42:24 | 43.56693 | -115.65930 | 361° | 5km/h | 24956m | -17.3m/s | -48.3°C | 0.9% | 0hPa | 0V | 08:26:00 | 00:00:00 | 00:00:00 | |
| KE7DJD | 2026-08-31 00:42:04 | 43.56717 | -115.65964 | 214° | 7km/h | 25321m | -18.7m/s | -48.4°C | 0.8% | 0hPa | 0V | 08:26:00 | 00:00:00 | 00:00:00 | |
| KE7DJD | 2026-08-31 00:41:44 | 43.56799 | -115.65968 | 186° | 26km/h | 25692m | -19.3m/s | -47.9°C | 0.8% | 0hPa | 0V | 08:27:00 | 00:00:00 | 00:00:00 | |
| KE7DJD | 2026-08-31 00:41:23 | 43.56884 | -115.65882 | 208° | 27km/h | 26095m | -19.0m/s | -48.1°C | 0.8% | 0hPa | 0V | 08:27:00 | 00:00:00 | 00:00:00 | |
| KE7DJD | 2026-08-31 00:41:03 | 43.56943 | -115.65723 | 309° | 29km/h | 26494m | -17.1m/s | -48.2°C | 0.8% | 0hPa | 0V | 08:27:00 | 00:00:00 | 00:00:00 | |
| KE7DJD | 2026-08-31 00:40:42 | 43.56881 | -115.65587 | 239° | 13km/h | 26874m | -19.0m/s | -48.0°C | 0.8% | 0hPa | 0V | 08:27:00 | 00:00:00 | 00:00:00 | |
| KE7DJD | 2026-08-31 00:40:22 | 43.56851 | -115.65508 | 312° | 22km/h | 27290m | -22.3m/s | -47.9°C | 0.8% | 0hPa | 0V | 08:27:00 | 00:00:00 | 00:00:00 | |
| KE7DJD | 2026-08-31 00:40:01 | 43.56716 | -115.65444 | 10° | 22km/h | 27744m | -22.6m/s | -47.9°C | 0.8% | 0hPa | 0V | 08:28:00 | 00:00:00 | 00:00:00 | |
| KE7DJD | 2026-08-31 00:39:41 | 43.56569 | -115.65485 | 63° | 46km/h | 28167m | -21.3m/s | -46.6°C | 0.8% | 0hPa | 0V | 08:28:00 | 00:00:00 | 00:00:00 | |
| KE7DJD | 2026-08-31 00:39:20 | 43.56602 | -115.65530 | 279° | 22km/h | 28612m | -22.9m/s | -45.0°C | 0.7% | 0hPa | 0V | 08:28:00 | 00:00:00 | 00:00:00 | |
| KE7DJD | 2026-08-31 00:38:59 | 43.56608 | -115.65467 | 200° | 22km/h | 29025m | -18.2m/s | -44.4°C | 0.7% | 0hPa | 0V | 08:29:00 | 00:00:00 | 00:00:00 | |
| KE7DJD | 2026-08-31 00:38:37 | 43.56606 | -115.65394 | 89° | 13km/h | 29503m | -23.4m/s | -44.8°C | 0.7% | 0hPa | 0V | 08:29:00 | 00:00:00 | 00:00:00 | |
| KE7DJD | 2026-08-31 00:38:16 | 43.56699 | -115.65459 | 311° | 18km/h | 29947m | -21.4m/s | -43.4°C | 0.6% | 0hPa | 0V | 00:00:00 | 00:00:00 | 00:00:00 | |
| KE7DJD | 2026-08-31 00:37:57 | 43.56660 | -115.65476 | 109° | 33km/h | 30390m | -19.2m/s | -42.4°C | 0.6% | 0hPa | 0V | 00:00:00 | 00:00:00 | 00:00:00 | |
| KE7DJD | 2026-08-31 00:37:34 | 43.56676 | -115.65594 | 103° | 29km/h | 30828m | -13.7m/s | -41.4°C | 0.6% | 0hPa | 0V | 00:00:00 | 00:00:00 | 00:00:00 | |
| KE7DJD | 2026-08-31 00:37:14 | 43.56684 | -115.65736 | 72° | 35km/h | 30725m | 4.1m/s | -41.3°C | 0.6% | 0hPa | 0V | 00:00:00 | 00:00:00 | 00:00:00 | |
| KE7DJD | 2026-08-31 00:36:54 | 43.56703 | -115.65854 | 97° | 9km/h | 30599m | 7.0m/s | -41.4°C | 0.6% | 0hPa | 0V | 00:00:00 | 00:00:00 | 00:00:00 | |
| KE7DJD | 2026-08-31 00:36:32 | 43.56727 | -115.65964 | 105° | 18km/h | 30471m | 6.2m/s | -42.1°C | 0.6% | 0hPa | 0V | 00:00:00 | 00:00:00 | 00:00:00 | |
| KE7DJD | 2026-08-31 00:36:12 | 43.56692 | -115.66060 | 352° | 4km/h | 30350m | 5.5m/s | -43.4°C | 0.7% | 0hPa | 0V | 00:00:00 | 00:00:00 | 00:00:00 | |
| KE7DJD | 2026-08-31 00:35:51 | 43.56627 | -115.66051 | 350° | 4km/h | 30223m | 7.3m/s | -43.7°C | 0.7% | 0hPa | 0V | 00:00:00 | 00:00:00 | 00:00:00 | |
| KE7DJD | 2026-08-31 00:35:30 | 43.56633 | -115.65982 | 59° | 15km/h | 30091m | 5.9m/s | -43.3°C | 0.7% | 0hPa | 0V | 00:00:00 | 00:00:00 | 00:00:00 | |
| KE7DJD | 2026-08-31 00:35:10 | 43.56686 | -115.65934 | 165° | 22km/h | 29972m | 7.2m/s | -43.9°C | 0.6% | 0hPa | 0V | 00:00:00 | 00:00:00 | 00:00:00 | |
| KE7DJD | 2026-08-31 00:34:49 | 43.56827 | -115.65978 | 131° | 18km/h | 29846m | 7.0m/s | -45.0°C | 0.7% | 0hPa | 0V | 00:00:00 | 00:00:00 | 00:00:00 | |
| KE7DJD | 2026-08-31 00:34:29 | 43.56916 | -115.66061 | 169° | 18km/h | 29724m | 5.0m/s | -45.1°C | 0.7% | 0hPa | 0V | 00:00:00 | 00:00:00 | 00:00:00 | |
| KE7DJD | 2026-08-31 00:34:08 | 43.56951 | -115.66160 | 173° | 11km/h | 29593m | 7.1m/s | -45.0°C | 0.7% | 0hPa | 0V | 00:00:00 | 00:00:00 | 00:00:00 | |
| KE7DJD | 2026-08-31 00:33:48 | 43.56943 | -115.66196 | 100° | 5km/h | 29471m | 6.5m/s | -44.6°C | 0.7% | 0hPa | 0V | 00:00:00 | 00:00:00 | 00:00:00 | |
| KE7DJD | 2026-08-31 00:33:27 | 43.56889 | -115.66185 | 259° | 26km/h | 29341m | 5.7m/s | -44.4°C | 0.7% | 0hPa | 0V | 00:00:00 | 00:00:00 | 00:00:00 | |
| KE7DJD | 2026-08-31 00:33:08 | 43.56823 | -115.66114 | 345° | 18km/h | 29217m | 7.3m/s | -44.5°C | 0.7% | 0hPa | 0V | 00:00:00 | 00:00:00 | 00:00:00 | |
| KE7DJD | 2026-08-31 00:32:46 | 43.56777 | -115.66028 | 220° | 27km/h | 29084m | 4.7m/s | -44.4°C | 0.7% | 0hPa | 0V | 00:00:00 | 00:00:00 | 00:00:00 | |
| KE7DJD | 2026-08-31 00:32:26 | 43.56764 | -115.65951 | 310° | 9km/h | 28954m | 4.7m/s | -44.1°C | 0.7% | 0hPa | 0V | 00:00:00 | 00:00:00 | 00:00:00 | |
| KE7DJD | 2026-08-31 00:32:04 | 43.56788 | -115.65907 | 237° | 9km/h | 28826m | 6.4m/s | -44.3°C | 0.7% | 0hPa | 0V | 00:00:00 | 00:00:00 | 00:00:00 | |
| KE7DJD | 2026-08-31 00:31:44 | 43.56795 | -115.65845 | 256° | 16km/h | 28703m | 7.2m/s | -44.8°C | 0.7% | 0hPa | 0V | 00:00:00 | 00:00:00 | 00:00:00 | |
| KE7DJD | 2026-08-31 00:31:22 | 43.56800 | -115.65862 | 10° | 11km/h | 28571m | 7.3m/s | -45.1°C | 0.8% | 0hPa | 0V | 00:00:00 | 00:00:00 | 00:00:00 | |
| KE7DJD | 2026-08-31 00:31:01 | 43.56806 | -115.65906 | 71° | 16km/h | 28445m | 7.3m/s | -45.2°C | 0.7% | 0hPa | 0V | 00:00:00 | 00:00:00 | 00:00:00 | |
| KE7DJD | 2026-08-31 00:30:40 | 43.56797 | -115.65951 | 166° | 2km/h | 28321m | 4.5m/s | -45.9°C | 0.7% | 0hPa | 0V | 00:00:00 | 00:00:00 | 00:00:00 | |
| KE7DJD | 2026-08-31 00:30:20 | 43.56799 | -115.66031 | 0° | 0km/h | 28202m | 6.6m/s | -46.5°C | 0.8% | 0hPa | 0V | 00:00:00 | 00:00:00 | 00:00:00 | |
| KE7DJD | 2026-08-31 00:30:00 | 43.56751 | -115.66118 | 43° | 22km/h | 28088m | 6.1m/s | -47.2°C | 0.8% | 0hPa | 0V | 00:00:00 | 00:00:00 | 00:00:00 | |
| KE7DJD | 2026-08-31 00:29:39 | 43.56624 | -115.66154 | 335° | 40km/h | 27967m | 4.8m/s | -47.8°C | 0.8% | 0hPa | 0V | 00:00:00 | 00:00:00 | 00:00:00 | |
| KE7DJD | 2026-08-31 00:29:19 | 43.56480 | -115.66115 | 355° | 37km/h | 27844m | 5.2m/s | -47.6°C | 0.8% | 0hPa | 0V | 00:00:00 | 00:00:00 | 00:00:00 | |
| KE7DJD | 2026-08-31 00:28:59 | 43.56357 | -115.66051 | 355° | 22km/h | 27724m | 5.3m/s | -47.4°C | 0.8% | 0hPa | 0V | 00:00:00 | 00:00:00 | 00:00:00 | |
| KE7DJD | 2026-08-31 00:28:37 | 43.56234 | -115.65964 | 308° | 16km/h | 27596m | 5.3m/s | -47.2°C | 0.8% | 0hPa | 0V | 00:00:00 | 00:00:00 | 00:00:00 | |
| KE7DJD | 2026-08-31 00:28:16 | 43.56120 | -115.65859 | 8° | 16km/h | 27459m | 6.8m/s | -47.3°C | 0.8% | 0hPa | 0V | 00:00:00 | 00:00:00 | 00:00:00 | |
| KE7DJD | 2026-08-31 00:27:35 | 43.55940 | -115.65652 | 296° | 15km/h | 27204m | 7.1m/s | -48.1°C | 0.9% | 0hPa | 0V | 00:00:00 | 00:00:00 | 00:00:00 | |
| KE7DJD | 2026-08-31 00:27:13 | 43.55905 | -115.65546 | 238° | 11km/h | 27074m | 7.5m/s | -48.1°C | 0.9% | 0hPa | 0V | 00:00:00 | 00:00:00 | 00:00:00 | |
| KE7DJD | 2026-08-31 00:26:53 | 43.55903 | -115.65458 | 292° | 27km/h | 26954m | 3.9m/s | -47.7°C | 0.9% | 0hPa | 0V | 00:00:00 | 00:00:00 | 00:00:00 | |
| KE7DJD | 2026-08-31 00:26:32 | 43.55913 | -115.65357 | 316° | 24km/h | 26828m | 5.7m/s | -47.9°C | 0.9% | 0hPa | 0V | 00:00:00 | 00:00:00 | 00:00:00 | |
| KE7DJD | 2026-08-31 00:26:10 | 43.55877 | -115.65218 | 289° | 26km/h | 26696m | 6.8m/s | -48.0°C | 0.9% | 0hPa | 0V | 00:00:00 | 00:00:00 | 00:00:00 | |
| KE7DJD | 2026-08-31 00:25:49 | 43.55807 | -115.65031 | 298° | 47km/h | 26573m | 7.0m/s | -48.5°C | 0.9% | 0hPa | 0V | 00:00:00 | 00:00:00 | 00:00:00 | |
| KE7DJD | 2026-08-31 00:25:28 | 43.55760 | -115.64809 | 258° | 38km/h | 26445m | 7.0m/s | -48.4°C | 0.9% | 0hPa | 0V | 00:00:00 | 00:00:00 | 00:00:00 | |
| KE7DJD | 2026-08-31 00:25:08 | 43.55806 | -115.64668 | 236° | 16km/h | 26330m | 5.8m/s | -48.2°C | 0.9% | 0hPa | 0V | 00:00:00 | 00:00:00 | 00:00:00 | |
| KE7DJD | 2026-08-31 00:24:47 | 43.55914 | -115.64525 | 180° | 26km/h | 26209m | 7.1m/s | -48.6°C | 0.9% | 0hPa | 0V | 00:00:00 | 00:00:00 | 00:00:00 | |
| KE7DJD | 2026-08-31 00:24:27 | 43.56032 | -115.64449 | 255° | 18km/h | 26095m | 6.0m/s | -48.0°C | 0.9% | 0hPa | 0V | 00:00:00 | 00:00:00 | 00:00:00 | |
| KE7DJD | 2026-08-31 00:24:07 | 43.56116 | -115.64362 | 219° | 9km/h | 25979m | 6.6m/s | -47.9°C | 0.9% | 0hPa | 0V | 00:00:00 | 00:00:00 | 00:00:00 | |
| KE7DJD | 2026-08-31 00:23:26 | 43.56268 | -115.64216 | 202° | 26km/h | 25740m | 7.0m/s | -48.1°C | 0.9% | 0hPa | 0V | 00:00:00 | 00:00:00 | 00:00:00 | |
| KE7DJD | 2026-08-31 00:23:05 | 43.56327 | -115.64223 | 203° | 26km/h | 25618m | 6.9m/s | -48.1°C | 0.9% | 0hPa | 0V | 00:00:00 | 00:00:00 | 00:00:00 | |
| KE7DJD | 2026-08-31 00:22:45 | 43.56406 | -115.64236 | 166° | 31km/h | 25495m | 5.3m/s | -48.9°C | 1.0% | 0hPa | 0V | 00:00:00 | 00:00:00 | 00:00:00 | |
| KE7DJD | 2026-08-31 00:22:24 | 43.56446 | -115.64219 | 159° | 2km/h | 25377m | 6.6m/s | -48.9°C | 0.9% | 0hPa | 0V | 00:00:00 | 00:00:00 | 00:00:00 | |
| KE7DJD | 2026-08-31 00:22:03 | 43.56472 | -115.64223 | 35° | 7km/h | 25253m | 6.2m/s | -48.2°C | 0.9% | 0hPa | 0V | 00:00:00 | 00:00:00 | 00:00:00 | |
| KE7DJD | 2026-08-31 00:21:42 | 43.56483 | -115.64301 | 77° | 22km/h | 25127m | 6.5m/s | -48.4°C | 1.0% | 0hPa | 0V | 00:00:00 | 00:00:00 | 00:00:00 | |
| KE7DJD | 2026-08-31 00:21:19 | 43.56452 | -115.64366 | 65° | 13km/h | 24994m | 5.8m/s | -48.2°C | 0.9% | 0hPa | 0V | 00:00:00 | 00:00:00 | 00:00:00 | |
| KE7DJD | 2026-08-31 00:20:38 | 43.56374 | -115.64260 | 275° | 9km/h | 24760m | 4.4m/s | -48.6°C | 1.0% | 0hPa | 0V | 00:00:00 | 00:00:00 | 00:00:00 | |
| KE7DJD | 2026-08-31 00:20:17 | 43.56349 | -115.64288 | 37° | 16km/h | 24639m | 6.3m/s | -48.0°C | 0.9% | 0hPa | 0V | 00:00:00 | 00:00:00 | 00:00:00 | |
| KE7DJD | 2026-08-31 00:19:55 | 43.56293 | -115.64424 | 54° | 37km/h | 24510m | 5.2m/s | -48.7°C | 1.0% | 0hPa | 0V | 00:00:00 | 00:00:00 | 00:00:00 | |
| KE7DJD | 2026-08-31 00:19:30 | 43.56238 | -115.64545 | 49° | 15km/h | 24376m | 4.9m/s | -48.6°C | 0.9% | 0hPa | 0V | 00:00:00 | 00:00:00 | 00:00:00 | |
| KE7DJD | 2026-08-31 00:19:10 | 43.56213 | -115.64536 | 211° | 18km/h | 24262m | 6.0m/s | -49.2°C | 0.9% | 0hPa | 0V | 00:00:00 | 00:00:00 | 00:00:00 | |
| KE7DJD | 2026-08-31 00:18:50 | 43.56175 | -115.64542 | 23° | 4km/h | 24149m | 6.9m/s | -49.7°C | 1.0% | 0hPa | 0V | 00:00:00 | 00:00:00 | 00:00:00 | |
| KE7DJD | 2026-08-31 00:18:29 | 43.56133 | -115.64622 | 60° | 7km/h | 24033m | 6.0m/s | -50.6°C | 1.0% | 0hPa | 0V | 00:00:00 | 00:00:00 | 00:00:00 | |
| KE7DJD | 2026-08-31 00:18:09 | 43.56073 | -115.64695 | 51° | 15km/h | 23919m | 7.0m/s | -51.1°C | 1.1% | 0hPa | 0V | 00:00:00 | 00:00:00 | 00:00:00 | |
| KE7DJD | 2026-08-31 00:17:49 | 43.55968 | -115.64819 | 40° | 47km/h | 23808m | 4.8m/s | -51.2°C | 1.1% | 0hPa | 0V | 00:00:00 | 00:00:00 | 00:00:00 | |
| KE7DJD | 2026-08-31 00:17:28 | 43.55827 | -115.64919 | 36° | 33km/h | 23692m | 6.3m/s | -51.2°C | 1.1% | 0hPa | 0V | 00:00:00 | 00:00:00 | 00:00:00 | |
| KE7DJD | 2026-08-31 00:17:07 | 43.55667 | -115.64962 | 359° | 31km/h | 23577m | 4.3m/s | -51.7°C | 1.1% | 0hPa | 0V | 00:00:00 | 00:00:00 | 00:00:00 | |
| KE7DJD | 2026-08-31 00:16:47 | 43.55510 | -115.64970 | 3° | 47km/h | 23464m | 5.9m/s | -52.6°C | 1.2% | 0hPa | 0V | 00:00:00 | 00:00:00 | 00:00:00 | |
| KE7DJD | 2026-08-31 00:16:27 | 43.55354 | -115.64910 | 321° | 29km/h | 23355m | 5.9m/s | -52.2°C | 1.1% | 0hPa | 0V | 00:00:00 | 00:00:00 | 00:00:00 | |
| KE7DJD | 2026-08-31 00:16:06 | 43.55247 | -115.64791 | 311° | 33km/h | 23242m | 5.2m/s | -52.3°C | 1.2% | 0hPa | 0V | 00:00:00 | 00:00:00 | 00:00:00 | |
| KE7DJD | 2026-08-31 00:15:46 | 43.55210 | -115.64651 | 291° | 24km/h | 23133m | 3.8m/s | -51.9°C | 1.2% | 0hPa | 0V | 00:00:00 | 00:00:00 | 00:00:00 | |
| KE7DJD | 2026-08-31 00:15:25 | 43.55214 | -115.64538 | 208° | 22km/h | 23016m | 6.0m/s | -51.6°C | 1.1% | 0hPa | 0V | 00:00:00 | 00:00:00 | 00:00:00 | |
| KE7DJD | 2026-08-31 00:15:05 | 43.55256 | -115.64480 | 185° | 20km/h | 22901m | 4.7m/s | -52.1°C | 1.2% | 0hPa | 0V | 00:00:00 | 00:00:00 | 00:00:00 | |
| KE7DJD | 2026-08-31 00:14:43 | 43.55259 | -115.64431 | 218° | 4km/h | 22788m | 6.0m/s | -52.0°C | 1.2% | 0hPa | 0V | 00:00:00 | 00:00:00 | 00:00:00 | |
| KE7DJD | 2026-08-31 00:14:22 | 43.55213 | -115.64369 | 328° | 18km/h | 22672m | 4.6m/s | -52.3°C | 1.2% | 0hPa | 0V | 00:00:00 | 00:00:00 | 00:00:00 | |
| KE7DJD | 2026-08-31 00:14:01 | 43.55188 | -115.64358 | 54° | 13km/h | 22556m | 6.9m/s | -52.2°C | 1.2% | 0hPa | 0V | 00:00:00 | 00:00:00 | 00:00:00 | |
| KE7DJD | 2026-08-31 00:13:40 | 43.55162 | -115.64353 | 17° | 7km/h | 22442m | 5.3m/s | -52.4°C | 1.2% | 0hPa | 0V | 00:00:00 | 00:00:00 | 00:00:00 | |
| KE7DJD | 2026-08-31 00:13:20 | 43.55153 | -115.64355 | 146° | 5km/h | 22332m | 6.2m/s | -52.0°C | 1.2% | 0hPa | 0V | 00:00:00 | 00:00:00 | 00:00:00 | |
| KE7DJD | 2026-08-31 00:12:59 | 43.55175 | -115.64397 | 238° | 7km/h | 22216m | 4.4m/s | -52.4°C | 1.2% | 0hPa | 0V | 00:00:00 | 00:00:00 | 00:00:00 | |
| KE7DJD | 2026-08-31 00:12:38 | 43.55194 | -115.64398 | 87° | 7km/h | 22101m | 5.6m/s | -52.4°C | 1.2% | 0hPa | 0V | 00:00:00 | 00:00:00 | 00:00:00 | |
| KE7DJD | 2026-08-31 00:12:17 | 43.55219 | -115.64471 | 22° | 9km/h | 21986m | 5.4m/s | -52.9°C | 1.2% | 0hPa | 0V | 00:00:00 | 00:00:00 | 00:00:00 | |
| KE7DJD | 2026-08-31 00:11:57 | 43.55225 | -115.64536 | 326° | 7km/h | 21875m | 5.1m/s | -53.5°C | 1.2% | 0hPa | 0V | 00:00:00 | 00:00:00 | 00:00:00 | |
| KE7DJD | 2026-08-31 00:11:35 | 43.55237 | -115.64580 | 155° | 5km/h | 21766m | 6.4m/s | -53.6°C | 1.3% | 0hPa | 0V | 00:00:00 | 00:00:00 | 00:00:00 | |
| KE7DJD | 2026-08-31 00:11:15 | 43.55240 | -115.64694 | 83° | 26km/h | 21660m | 4.1m/s | -54.2°C | 1.3% | 0hPa | 0V | 00:00:00 | 00:00:00 | 00:00:00 | |
| KE7DJD | 2026-08-31 00:10:54 | 43.55210 | -115.64838 | 51° | 20km/h | 21550m | 4.2m/s | -54.7°C | 1.3% | 0hPa | 0V | 00:00:00 | 00:00:00 | 00:00:00 | |
| KE7DJD | 2026-08-31 00:10:34 | 43.55151 | -115.64950 | 65° | 27km/h | 21445m | 6.3m/s | -54.5°C | 1.3% | 0hPa | 0V | 00:00:00 | 00:00:00 | 00:00:00 | |
| KE7DJD | 2026-08-31 00:10:13 | 43.55073 | -115.65082 | 28° | 15km/h | 21337m | 4.5m/s | -55.0°C | 1.3% | 0hPa | 0V | 00:00:00 | 00:00:00 | 00:00:00 | |
| KE7DJD | 2026-08-31 00:09:52 | 43.55012 | -115.65128 | 241° | 4km/h | 21227m | 4.8m/s | -56.1°C | 1.4% | 0hPa | 0V | 00:00:00 | 00:00:00 | 00:00:00 | |
| KE7DJD | 2026-08-31 00:09:32 | 43.54997 | -115.65151 | 191° | 7km/h | 21121m | 4.7m/s | -56.0°C | 1.4% | 0hPa | 0V | 00:00:00 | 00:00:00 | 00:00:00 | |
| KE7DJD | 2026-08-31 00:09:11 | 43.54992 | -115.65250 | 95° | 16km/h | 21014m | 4.8m/s | -56.5°C | 1.5% | 0hPa | 0V | 00:00:00 | 00:00:00 | 00:00:00 | |
| KE7DJD | 2026-08-31 00:08:51 | 43.54955 | -115.65375 | 69° | 20km/h | 20906m | 5.2m/s | -55.8°C | 1.4% | 0hPa | 0V | 00:00:00 | 00:00:00 | 00:00:00 | |
| KE7DJD | 2026-08-31 00:08:30 | 43.54901 | -115.65475 | 46° | 7km/h | 20793m | 5.0m/s | -55.2°C | 1.4% | 0hPa | 0V | 00:00:00 | 00:00:00 | 00:00:00 | |
| KE7DJD | 2026-08-31 00:08:09 | 43.54830 | -115.65542 | 32° | 24km/h | 20679m | 4.8m/s | -54.4°C | 1.4% | 0hPa | 0V | 00:00:00 | 00:00:00 | 00:00:00 | |
| KE7DJD | 2026-08-31 00:07:49 | 43.54737 | -115.65575 | 355° | 26km/h | 20576m | 6.4m/s | -54.2°C | 1.4% | 0hPa | 0V | 00:00:00 | 00:00:00 | 00:00:00 | |
| KE7DJD | 2026-08-31 00:07:27 | 43.54658 | -115.65542 | 301° | 16km/h | 20460m | 5.6m/s | -53.6°C | 1.4% | 0hPa | 0V | 00:00:00 | 00:00:00 | 00:00:00 | |
| KE7DJD | 2026-08-31 00:07:08 | 43.54621 | -115.65483 | 279° | 20km/h | 20351m | 4.6m/s | -53.2°C | 1.3% | 0hPa | 0V | 00:00:00 | 00:00:00 | 00:00:00 | |
| KE7DJD | 2026-08-31 00:06:47 | 43.54611 | -115.65402 | 219° | 9km/h | 20251m | 6.5m/s | -52.9°C | 1.3% | 0hPa | 0V | 00:00:00 | 00:00:00 | 00:00:00 | |
| KE7DJD | 2026-08-31 00:06:26 | 43.54648 | -115.65395 | 97° | 13km/h | 20141m | 4.7m/s | -53.7°C | 1.3% | 0hPa | 0V | 00:00:00 | 00:00:00 | 00:00:00 | |
| KE7DJD | 2026-08-31 00:06:05 | 43.54678 | -115.65509 | 90° | 20km/h | 20029m | 6.2m/s | -54.2°C | 1.3% | 0hPa | 0V | 00:00:00 | 00:00:00 | 00:00:00 | |
| KE7DJD | 2026-08-31 00:05:44 | 43.54658 | -115.65619 | 77° | 24km/h | 19916m | 5.8m/s | -54.9°C | 1.4% | 0hPa | 0V | 00:00:00 | 00:00:00 | 00:00:00 | |
| KE7DJD | 2026-08-31 00:05:23 | 43.54597 | -115.65775 | 75° | 29km/h | 19805m | 5.8m/s | -55.7°C | 1.4% | 0hPa | 0V | 00:00:00 | 00:00:00 | 00:00:00 | |
| KE7DJD | 2026-08-31 00:05:03 | 43.54523 | -115.65980 | 67° | 37km/h | 19701m | 4.9m/s | -55.6°C | 1.5% | 0hPa | 0V | 00:00:00 | 00:00:00 | 00:00:00 | |
| KE7DJD | 2026-08-31 00:04:42 | 43.54400 | -115.66190 | 46° | 38km/h | 19593m | 6.0m/s | -56.5°C | 1.5% | 0hPa | 0V | 00:00:00 | 00:00:00 | 00:00:00 | |
| KE7DJD | 2026-08-31 00:04:21 | 43.54219 | -115.66347 | 38° | 37km/h | 19481m | 4.9m/s | -57.1°C | 1.5% | 0hPa | 0V | 00:00:00 | 00:00:00 | 00:00:00 | |
| KE7DJD | 2026-08-31 00:04:01 | 43.54003 | -115.66416 | 13° | 37km/h | 19372m | 4.4m/s | -57.9°C | 1.6% | 0hPa | 0V | 00:00:00 | 00:00:00 | 00:00:00 | |
| KE7DJD | 2026-08-31 00:03:40 | 43.53857 | -115.66435 | 12° | 16km/h | 19269m | 3.9m/s | -57.4°C | 1.6% | 0hPa | 0V | 00:00:00 | 00:00:00 | 00:00:00 | |
| KE7DJD | 2026-08-31 00:03:20 | 43.53727 | -115.66438 | 9° | 18km/h | 19161m | 5.2m/s | -57.2°C | 1.6% | 0hPa | 0V | 00:00:00 | 00:00:00 | 00:00:00 | |
| KE7DJD | 2026-08-31 00:02:24 | 43.53416 | -115.66513 | 3° | 20km/h | 18743m | 5.3m/s | -57.8°C | 1.7% | 0hPa | 0V | 00:00:00 | 00:00:00 | 00:00:00 | |
| KE7DJD | 2026-08-31 00:01:57 | 43.53331 | -115.66568 | 34° | 11km/h | 18636m | 5.7m/s | -57.8°C | 1.6% | 0hPa | 0V | 00:00:00 | 00:00:00 | 00:00:00 | |
| KE7DJD | 2026-08-31 00:01:26 | 43.53261 | -115.66612 | 20° | 15km/h | 18537m | 3.2m/s | -57.9°C | 1.7% | 0hPa | 0V | 00:00:00 | 00:00:00 | 00:00:00 | |
| KE7DJD | 2026-08-31 00:01:01 | 43.53218 | -115.66645 | 59° | 13km/h | 18438m | 5.6m/s | -57.8°C | 1.7% | 0hPa | 0V | 00:00:00 | 00:00:00 | 00:00:00 | |
| KE7DJD | 2026-08-31 00:00:41 | 43.53199 | -115.66745 | 54° | 16km/h | 18343m | 5.0m/s | -57.4°C | 1.7% | 0hPa | 0V | 00:00:00 | 00:00:00 | 00:00:00 | |
| KE7DJD | 2026-08-31 00:00:19 | 43.53151 | -115.66904 | 75° | 29km/h | 18240m | 5.4m/s | -56.9°C | 1.6% | 0hPa | 0V | 00:00:00 | 00:00:00 | 00:00:00 | |
| KE7DJD | 2026-08-30 23:59:54 | 43.53079 | -115.67101 | 55° | 29km/h | 18138m | 6.3m/s | -57.2°C | 1.7% | 0hPa | 0V | 00:00:00 | 00:00:00 | 00:00:00 | |
| KE7DJD | 2026-08-30 23:59:34 | 43.52978 | -115.67246 | 76° | 27km/h | 18037m | 5.6m/s | -56.2°C | 1.6% | 0hPa | 0V | 00:00:00 | 00:00:00 | 00:00:00 | |
| KE7DJD | 2026-08-30 23:59:14 | 43.52896 | -115.67382 | 49° | 20km/h | 17937m | 4.7m/s | -55.4°C | 1.5% | 0hPa | 0V | 00:00:00 | 00:00:00 | 00:00:00 | |
| KE7DJD | 2026-08-30 23:58:53 | 43.52804 | -115.67494 | 57° | 24km/h | 17831m | 4.2m/s | -54.4°C | 1.4% | 0hPa | 0V | 00:00:00 | 00:00:00 | 00:00:00 | |
| KE7DJD | 2026-08-30 23:58:33 | 43.52724 | -115.67599 | 49° | 22km/h | 17730m | 4.1m/s | -55.1°C | 1.5% | 0hPa | 0V | 00:00:00 | 00:00:00 | 00:00:00 | |
| KE7DJD | 2026-08-30 23:58:12 | 43.52642 | -115.67807 | 68° | 33km/h | 17621m | 5.5m/s | -55.4°C | 1.6% | 0hPa | 0V | 00:00:00 | 00:00:00 | 00:00:00 | |
| KE7DJD | 2026-08-30 23:57:51 | 43.52506 | -115.67991 | 53° | 37km/h | 17512m | 5.6m/s | -55.1°C | 1.5% | 0hPa | 0V | 00:00:00 | 00:00:00 | 00:00:00 | |
| KE7DJD | 2026-08-30 23:57:31 | 43.52341 | -115.68150 | 37° | 33km/h | 17414m | 5.1m/s | -54.8°C | 1.5% | 0hPa | 0V | 00:00:00 | 00:00:00 | 00:00:00 | |
| KE7DJD | 2026-08-30 23:57:10 | 43.52180 | -115.68292 | 36° | 27km/h | 17306m | 5.9m/s | -54.0°C | 1.5% | 0hPa | 0V | 00:00:00 | 00:00:00 | 00:00:00 | |
| KE7DJD | 2026-08-30 23:56:50 | 43.52069 | -115.68403 | 53° | 31km/h | 17206m | 5.8m/s | -53.7°C | 1.5% | 0hPa | 0V | 00:00:00 | 00:00:00 | 00:00:00 | |
| KE7DJD | 2026-08-30 23:56:29 | 43.52003 | -115.68567 | 92° | 24km/h | 17104m | 4.2m/s | -54.3°C | 1.5% | 0hPa | 0V | 00:00:00 | 00:00:00 | 00:00:00 | |
| KE7DJD | 2026-08-30 23:56:09 | 43.51950 | -115.68782 | 54° | 37km/h | 17010m | 3.5m/s | -55.0°C | 1.7% | 0hPa | 0V | 00:00:00 | 00:00:00 | 00:00:00 | |
| KE7DJD | 2026-08-30 23:55:49 | 43.51882 | -115.69039 | 72° | 38km/h | 16917m | 5.6m/s | -55.0°C | 1.7% | 0hPa | 0V | 00:00:00 | 00:00:00 | 00:00:00 | |
| KE7DJD | 2026-08-30 23:55:28 | 43.51822 | -115.69372 | 79° | 46km/h | 16823m | 3.3m/s | -55.4°C | 1.7% | 0hPa | 0V | 00:00:00 | 00:00:00 | 00:00:00 | |
| KE7DJD | 2026-08-30 23:55:07 | 43.51786 | -115.69683 | 75° | 46km/h | 16730m | 3.5m/s | -55.8°C | 1.8% | 0hPa | 0V | 00:00:00 | 00:00:00 | 00:00:00 | |
| KE7DJD | 2026-08-30 23:54:47 | 43.51750 | -115.70025 | 81° | 57km/h | 16644m | 4.4m/s | -56.3°C | 1.8% | 0hPa | 0V | 00:00:00 | 00:00:00 | 00:00:00 | |
| KE7DJD | 2026-08-30 23:54:27 | 43.51682 | -115.70356 | 80° | 47km/h | 16551m | 3.3m/s | -56.5°C | 1.8% | 0hPa | 0V | 00:00:00 | 00:00:00 | 00:00:00 | |
| KE7DJD | 2026-08-30 23:54:06 | 43.51562 | -115.70745 | 68° | 60km/h | 16454m | 5.2m/s | -56.7°C | 1.9% | 0hPa | 0V | 00:00:00 | 00:00:00 | 00:00:00 | |
| KE7DJD | 2026-08-30 23:53:46 | 43.51426 | -115.71071 | 61° | 49km/h | 16364m | 4.8m/s | -56.4°C | 1.8% | 0hPa | 0V | 00:00:00 | 00:00:00 | 00:00:00 | |
| KE7DJD | 2026-08-30 23:53:25 | 43.51259 | -115.71380 | 52° | 46km/h | 16267m | 4.7m/s | -55.7°C | 1.8% | 0hPa | 0V | 00:00:00 | 00:00:00 | 00:00:00 | |
| KE7DJD | 2026-08-30 23:53:05 | 43.51122 | -115.71634 | 65° | 42km/h | 16173m | 5.5m/s | -55.8°C | 1.9% | 0hPa | 0V | 00:00:00 | 00:00:00 | 00:00:00 | |
| KE7DJD | 2026-08-30 23:52:45 | 43.51012 | -115.71911 | 61° | 46km/h | 16077m | 4.9m/s | -55.3°C | 1.8% | 0hPa | 0V | 00:00:00 | 00:00:00 | 00:00:00 | |
| KE7DJD | 2026-08-30 23:52:26 | 43.50935 | -115.72189 | 80° | 47km/h | 15983m | 4.4m/s | -55.1°C | 1.8% | 0hPa | 0V | 00:00:00 | 00:00:00 | 00:00:00 | |
| KE7DJD | 2026-08-30 23:52:04 | 43.50889 | -115.72549 | 86° | 57km/h | 15883m | 4.9m/s | -55.5°C | 1.8% | 0hPa | 0V | 00:00:00 | 00:00:00 | 00:00:00 | |
| KE7DJD | 2026-08-30 23:51:44 | 43.50823 | -115.72958 | 71° | 60km/h | 15789m | 4.3m/s | -56.3°C | 1.9% | 0hPa | 0V | 00:00:00 | 00:00:00 | 00:00:00 | |
| KE7DJD | 2026-08-30 23:51:24 | 43.50715 | -115.73336 | 61° | 55km/h | 15694m | 3.3m/s | -56.7°C | 2.0% | 0hPa | 0V | 00:00:00 | 00:00:00 | 00:00:00 | |
| KE7DJD | 2026-08-30 23:51:04 | 43.50603 | -115.73673 | 62° | 49km/h | 15599m | 4.4m/s | -56.9°C | 2.0% | 0hPa | 0V | 00:00:00 | 00:00:00 | 00:00:00 | |
| KE7DJD | 2026-08-30 23:50:43 | 43.50486 | -115.74062 | 63° | 68km/h | 15503m | 5.6m/s | -57.0°C | 2.1% | 0hPa | 0V | 00:00:00 | 00:00:00 | 00:00:00 | |
| KE7DJD | 2026-08-30 23:50:23 | 43.50367 | -115.74431 | 68° | 47km/h | 15412m | 4.3m/s | -56.4°C | 2.1% | 0hPa | 0V | 00:00:00 | 00:00:00 | 00:00:00 | |
| KE7DJD | 2026-08-30 23:50:03 | 43.50241 | -115.74764 | 58° | 46km/h | 15322m | 4.7m/s | -56.2°C | 2.1% | 0hPa | 0V | 00:00:00 | 00:00:00 | 00:00:00 | |
| KE7DJD | 2026-08-30 23:49:42 | 43.50145 | -115.75082 | 77° | 49km/h | 15224m | 5.5m/s | -56.1°C | 2.2% | 0hPa | 0V | 00:00:00 | 00:00:00 | 00:00:00 | |
| KE7DJD | 2026-08-30 23:49:21 | 43.50053 | -115.75464 | 67° | 60km/h | 15131m | 3.8m/s | -56.1°C | 2.2% | 0hPa | 0V | 00:00:00 | 00:00:00 | 00:00:00 | |
| KE7DJD | 2026-08-30 23:49:00 | 43.49966 | -115.75886 | 82° | 60km/h | 15037m | 4.5m/s | -56.6°C | 2.4% | 0hPa | 0V | 00:00:00 | 00:00:00 | 00:00:00 | |
| KE7DJD | 2026-08-30 23:48:39 | 43.49908 | -115.76315 | 83° | 57km/h | 14942m | 3.9m/s | -57.2°C | 2.7% | 0hPa | 0V | 00:00:00 | 00:00:00 | 00:00:00 | |
| KE7DJD | 2026-08-30 23:48:18 | 43.49836 | -115.76737 | 80° | 53km/h | 14846m | 3.6m/s | -57.0°C | 2.8% | 0hPa | 0V | 00:00:00 | 00:00:00 | 00:00:00 | |
| KE7DJD | 2026-08-30 23:47:59 | 43.49776 | -115.77098 | 82° | 46km/h | 14752m | 3.3m/s | -57.7°C | 3.1% | 0hPa | 0V | 00:00:00 | 00:00:00 | 00:00:00 | |
| KE7DJD | 2026-08-30 23:47:38 | 43.49743 | -115.77470 | 96° | 58km/h | 14655m | 3.6m/s | -58.3°C | 3.4% | 0hPa | 0V | 00:00:00 | 00:00:00 | 00:00:00 | |
| KE7DJD | 2026-08-30 23:47:18 | 43.49715 | -115.77895 | 82° | 60km/h | 14562m | 5.2m/s | -58.1°C | 3.4% | 0hPa | 0V | 00:00:00 | 00:00:00 | 00:00:00 | |
| KE7DJD | 2026-08-30 23:46:57 | 43.49630 | -115.78342 | 75° | 62km/h | 14463m | 5.5m/s | -57.9°C | 3.5% | 0hPa | 0V | 00:00:00 | 00:00:00 | 00:00:00 | |
| KE7DJD | 2026-08-30 23:46:37 | 43.49506 | -115.78752 | 68° | 62km/h | 14370m | 5.6m/s | -57.2°C | 3.5% | 0hPa | 0V | 00:00:00 | 00:00:00 | 00:00:00 | |
| KE7DJD | 2026-08-30 23:46:16 | 43.49366 | -115.79153 | 59° | 57km/h | 14270m | 5.9m/s | -56.4°C | 3.5% | 0hPa | 0V | 00:00:00 | 00:00:00 | 00:00:00 | |
| KE7DJD | 2026-08-30 23:45:56 | 43.49307 | -115.79501 | 86° | 64km/h | 14123m | 7.5m/s | -56.0°C | 3.4% | 0hPa | 0V | 00:00:00 | 00:00:00 | 00:00:00 | |
| KE7DJD | 2026-08-30 23:45:36 | 43.49278 | -115.79959 | 79° | 62km/h | 14020m | 4.2m/s | -55.8°C | 3.6% | 0hPa | 0V | 00:00:00 | 00:00:00 | 00:00:00 | |
| KE7DJD | 2026-08-30 23:45:15 | 43.49213 | -115.80424 | 78° | 58km/h | 13923m | 3.5m/s | -55.8°C | 3.9% | 0hPa | 0V | 00:00:00 | 00:00:00 | 00:00:00 | |
| KE7DJD | 2026-08-30 23:44:56 | 43.49173 | -115.80873 | 86° | 62km/h | 13833m | 3.1m/s | -56.3°C | 4.4% | 0hPa | 0V | 00:00:00 | 00:00:00 | 00:00:00 | |
| KE7DJD | 2026-08-30 23:44:35 | 43.49133 | -115.81366 | 76° | 69km/h | 13745m | 4.8m/s | -56.4°C | 5.0% | 0hPa | 0V | 00:00:00 | 00:00:00 | 00:00:00 | |
| KE7DJD | 2026-08-30 23:44:15 | 43.49088 | -115.81807 | 91° | 51km/h | 13646m | 5.5m/s | -56.6°C | 5.7% | 0hPa | 0V | 00:00:00 | 00:00:00 | 00:00:00 | |
| KE7DJD | 2026-08-30 23:43:54 | 43.49125 | -115.82226 | 97° | 69km/h | 13550m | 3.5m/s | -57.0°C | 6.3% | 0hPa | 0V | 00:00:00 | 00:00:00 | 00:00:00 | |
| KE7DJD | 2026-08-30 23:43:33 | 43.49191 | -115.82709 | 98° | 75km/h | 13453m | 5.3m/s | -57.3°C | 7.3% | 0hPa | 0V | 00:00:00 | 00:00:00 | 00:00:00 | |
| KE7DJD | 2026-08-30 23:43:13 | 43.49205 | -115.83235 | 86° | 78km/h | 13360m | 4.0m/s | -57.5°C | 8.6% | 0hPa | 0V | 00:00:00 | 00:00:00 | 00:00:00 | |
| KE7DJD | 2026-08-30 23:42:52 | 43.49154 | -115.83742 | 83° | 68km/h | 13263m | 3.8m/s | -58.2°C | 9.7% | 0hPa | 0V | 00:00:00 | 00:00:00 | 00:00:00 | |
| KE7DJD | 2026-08-30 23:42:31 | 43.49116 | -115.84139 | 78° | 51km/h | 13167m | 5.3m/s | -57.6°C | 10.5% | 0hPa | 0V | 00:00:00 | 00:00:00 | 00:00:00 | |
| KE7DJD | 2026-08-30 23:42:10 | 43.49109 | -115.84491 | 88° | 42km/h | 13067m | 3.9m/s | -57.3°C | 11.6% | 0hPa | 0V | 00:00:00 | 00:00:00 | 00:00:00 | |
| KE7DJD | 2026-08-30 23:41:50 | 43.49151 | -115.84806 | 111° | 51km/h | 12977m | 4.7m/s | -57.3°C | 14.0% | 0hPa | 0V | 00:00:00 | 00:00:00 | 00:00:00 | |
| KE7DJD | 2026-08-30 23:41:30 | 43.49256 | -115.85162 | 122° | 49km/h | 12882m | 5.3m/s | -57.9°C | 17.7% | 0hPa | 0V | 00:00:00 | 00:00:00 | 00:00:00 | |
| KE7DJD | 2026-08-30 23:41:09 | 43.49371 | -115.85517 | 114° | 58km/h | 12795m | 4.5m/s | -58.1°C | 21.0% | 0hPa | 0V | 00:00:00 | 00:00:00 | 00:00:00 | |
| KE7DJD | 2026-08-30 23:40:29 | 43.49477 | -115.86266 | 100° | 58km/h | 12617m | 4.6m/s | -58.7°C | 30.3% | 0hPa | 0V | 00:00:00 | 00:00:00 | 00:00:00 | |
| KE7DJD | 2026-08-30 23:40:07 | 43.49511 | -115.86658 | 94° | 46km/h | 12524m | 5.1m/s | -59.5°C | 39.8% | 0hPa | 0V | 00:00:00 | 00:00:00 | 00:00:00 | |
| KE7DJD | 2026-08-30 23:39:48 | 43.49551 | -115.86985 | 98° | 47km/h | 12434m | 2.5m/s | -59.3°C | 43.9% | 0hPa | 0V | 00:00:00 | 00:00:00 | 00:00:00 | |
| KE7DJD | 2026-08-30 23:39:26 | 43.49610 | -115.87267 | 131° | 37km/h | 12338m | 3.9m/s | -58.7°C | 45.9% | 0hPa | 0V | 00:00:00 | 00:00:00 | 00:00:00 | |
| KE7DJD | 2026-08-30 23:39:07 | 43.49721 | -115.87537 | 142° | 57km/h | 12212m | 6.8m/s | -58.4°C | 43.9% | 0hPa | 0V | 00:00:00 | 00:00:00 | 00:00:00 | |
| KE7DJD | 2026-08-30 23:38:47 | 43.49908 | -115.87762 | 145° | 60km/h | 12082m | 6.4m/s | -58.2°C | 41.8% | 0hPa | 0V | 00:00:00 | 00:00:00 | 00:00:00 | |
| KE7DJD | 2026-08-30 23:38:27 | 43.50144 | -115.88051 | 138° | 58km/h | 11995m | 4.4m/s | -57.6°C | 40.0% | 0hPa | 0V | 00:00:00 | 00:00:00 | 00:00:00 | |
| KE7DJD | 2026-08-30 23:38:06 | 43.50391 | -115.88327 | 139° | 55km/h | 11902m | 4.8m/s | -56.9°C | 41.4% | 0hPa | 0V | 00:00:00 | 00:00:00 | 00:00:00 | |
| KE7DJD | 2026-08-30 23:37:45 | 43.50610 | -115.88607 | 137° | 60km/h | 11813m | 4.1m/s | -56.1°C | 41.6% | 0hPa | 0V | 00:00:00 | 00:00:00 | 00:00:00 | |
| KE7DJD | 2026-08-30 23:37:25 | 43.50816 | -115.88887 | 127° | 55km/h | 11726m | 3.7m/s | -55.5°C | 45.5% | 0hPa | 0V | 00:00:00 | 00:00:00 | 00:00:00 | |
| KE7DJD | 2026-08-30 23:37:05 | 43.51003 | -115.89188 | 122° | 53km/h | 11635m | 5.2m/s | -54.7°C | 45.1% | 0hPa | 0V | 00:00:00 | 00:00:00 | 00:00:00 | |
| KE7DJD | 2026-08-30 23:36:43 | 43.51186 | -115.89501 | 127° | 51km/h | 11548m | 4.8m/s | -54.2°C | 47.8% | 0hPa | 0V | 00:00:00 | 00:00:00 | 00:00:00 | |
| KE7DJD | 2026-08-30 23:36:23 | 43.51342 | -115.89820 | 126° | 58km/h | 11465m | 4.6m/s | -53.7°C | 49.9% | 0hPa | 0V | 00:00:00 | 00:00:00 | 00:00:00 | |
| KE7DJD | 2026-08-30 23:36:04 | 43.51492 | -115.90173 | 120° | 55km/h | 11382m | 2.8m/s | -53.1°C | 54.4% | 0hPa | 0V | 00:00:00 | 00:00:00 | 00:00:00 | |
| KE7DJD | 2026-08-30 23:35:43 | 43.51640 | -115.90548 | 116° | 60km/h | 11305m | 4.2m/s | -52.6°C | 56.2% | 0hPa | 0V | 00:00:00 | 00:00:00 | 00:00:00 | |
| KE7DJD | 2026-08-30 23:35:23 | 43.51789 | -115.90952 | 114° | 66km/h | 11229m | 4.5m/s | -52.0°C | 51.7% | 0hPa | 0V | 00:00:00 | 00:00:00 | 00:00:00 | |
| KE7DJD | 2026-08-30 23:35:03 | 43.51957 | -115.91328 | 126° | 69km/h | 11153m | 4.4m/s | -51.3°C | 52.5% | 0hPa | 0V | 00:00:00 | 00:00:00 | 00:00:00 | |
| KE7DJD | 2026-08-30 23:34:42 | 43.52119 | -115.91728 | 113° | 60km/h | 11071m | 3.5m/s | -50.5°C | 49.9% | 0hPa | 0V | 00:00:00 | 00:00:00 | 00:00:00 | |
| KE7DJD | 2026-08-30 23:34:21 | 43.52279 | -115.92106 | 114° | 62km/h | 10997m | 3.6m/s | -49.8°C | 48.1% | 0hPa | 0V | 00:00:00 | 00:00:00 | 00:00:00 | |
| KE7DJD | 2026-08-30 23:34:01 | 43.52447 | -115.92526 | 118° | 80km/h | 10916m | 4.9m/s | -49.1°C | 50.3% | 0hPa | 0V | 00:00:00 | 00:00:00 | 00:00:00 | |
| KE7DJD | 2026-08-30 23:33:41 | 43.52625 | -115.92899 | 119° | 66km/h | 10805m | 2.5m/s | -48.2°C | 50.3% | 0hPa | 0V | 00:00:00 | 00:00:00 | 00:00:00 | |
| KE7DJD | 2026-08-30 23:33:20 | 43.52749 | -115.93297 | 121° | 57km/h | 10716m | 2.9m/s | -47.4°C | 46.1% | 0hPa | 0V | 00:00:00 | 00:00:00 | 00:00:00 | |
| KE7DJD | 2026-08-30 23:33:00 | 43.52886 | -115.93724 | 125° | 57km/h | 10631m | 4.0m/s | -46.6°C | 42.8% | 0hPa | 0V | 00:00:00 | 00:00:00 | 00:00:00 | |
| KE7DJD | 2026-08-30 23:32:39 | 43.53019 | -115.94135 | 114° | 77km/h | 10546m | 5.2m/s | -45.9°C | 39.0% | 0hPa | 0V | 00:00:00 | 00:00:00 | 00:00:00 | |
| KE7DJD | 2026-08-30 23:32:18 | 43.53144 | -115.94563 | 110° | 58km/h | 10454m | 5.1m/s | -45.0°C | 35.1% | 0hPa | 0V | 00:00:00 | 00:00:00 | 00:00:00 | |
| KE7DJD | 2026-08-30 23:31:59 | 43.53243 | -115.94976 | 107° | 60km/h | 10367m | 5.6m/s | -44.3°C | 36.0% | 0hPa | 0V | 00:00:00 | 00:00:00 | 00:00:00 | |
| KE7DJD | 2026-08-30 23:31:39 | 43.53355 | -115.95391 | 110° | 57km/h | 10278m | 4.2m/s | -43.5°C | 34.0% | 0hPa | 0V | 00:00:00 | 00:00:00 | 00:00:00 | |
| KE7DJD | 2026-08-30 23:31:19 | 43.53463 | -115.95795 | 113° | 62km/h | 10190m | 2.8m/s | -42.9°C | 48.8% | 0hPa | 0V | 00:00:00 | 00:00:00 | 00:00:00 | |
| KE7DJD | 2026-08-30 23:30:59 | 43.53559 | -115.96217 | 112° | 64km/h | 10098m | 3.8m/s | -42.1°C | 53.0% | 0hPa | 0V | 00:00:00 | 00:00:00 | 00:00:00 | |
| KE7DJD | 2026-08-30 23:30:38 | 43.53651 | -115.96693 | 102° | 77km/h | 10004m | 4.2m/s | -41.3°C | 55.1% | 0hPa | 0V | 00:00:00 | 00:00:00 | 00:00:00 | |
| KE7DJD | 2026-08-30 23:30:18 | 43.53751 | -115.97146 | 101° | 68km/h | 9912m | 4.9m/s | -40.7°C | 55.4% | 0hPa | 0V | 00:00:00 | 00:00:00 | 00:00:00 | |
| KE7DJD | 2026-08-30 23:29:56 | 43.53853 | -115.97623 | 109° | 78km/h | 9818m | 3.6m/s | -39.9°C | 62.1% | 0hPa | 0V | 00:00:00 | 00:00:00 | 00:00:00 | |
| KE7DJD | 2026-08-30 23:29:35 | 43.53964 | -115.98101 | 114° | 84km/h | 9718m | 4.4m/s | -39.1°C | 65.5% | 0hPa | 0V | 00:00:00 | 00:00:00 | 00:00:00 | |
| KE7DJD | 2026-08-30 23:29:16 | 43.54068 | -115.98551 | 111° | 68km/h | 9607m | 5.7m/s | -38.1°C | 64.6% | 0hPa | 0V | 00:00:00 | 00:00:00 | 00:00:00 | |
| KE7DJD | 2026-08-30 23:28:55 | 43.54147 | -115.99017 | 97° | 69km/h | 9495m | 3.7m/s | -37.2°C | 66.5% | 0hPa | 0V | 00:00:00 | 00:00:00 | 00:00:00 | |
| KE7DJD | 2026-08-30 23:28:34 | 43.54234 | -115.99486 | 112° | 73km/h | 9396m | 4.4m/s | -36.4°C | 68.8% | 0hPa | 0V | 00:00:00 | 00:00:00 | 00:00:00 | |
| KE7DJD | 2026-08-30 23:28:14 | 43.54313 | -115.99966 | 107° | 75km/h | 9291m | 3.9m/s | -35.5°C | 69.3% | 0hPa | 0V | 00:00:00 | 00:00:00 | 00:00:00 | |
| KE7DJD | 2026-08-30 23:27:52 | 43.54374 | -116.00452 | 94° | 66km/h | 9195m | 4.3m/s | -34.7°C | 68.8% | 0hPa | 0V | 00:00:00 | 00:00:00 | 00:00:00 | |
| KE7DJD | 2026-08-30 23:27:31 | 43.54419 | -116.00929 | 104° | 60km/h | 9081m | 5.1m/s | -33.8°C | 67.1% | 0hPa | 0V | 00:00:00 | 00:00:00 | 00:00:00 | |
| KE7DJD | 2026-08-30 23:27:12 | 43.54473 | -116.01389 | 94° | 82km/h | 8974m | 7.5m/s | -33.0°C | 65.7% | 0hPa | 0V | 00:00:00 | 00:00:00 | 00:00:00 | |
| KE7DJD | 2026-08-30 23:26:50 | 43.54516 | -116.01879 | 99° | 86km/h | 8869m | 2.8m/s | -32.1°C | 64.3% | 0hPa | 0V | 00:00:00 | 00:00:00 | 00:00:00 | |
| KE7DJD | 2026-08-30 23:26:30 | 43.54553 | -116.02335 | 89° | 57km/h | 8758m | 3.7m/s | -31.1°C | 61.9% | 0hPa | 0V | 00:00:00 | 00:00:00 | 00:00:00 | |
| KE7DJD | 2026-08-30 23:26:10 | 43.54546 | -116.02801 | 96° | 73km/h | 8647m | 5.1m/s | -30.1°C | 59.4% | 0hPa | 0V | 00:00:00 | 00:00:00 | 00:00:00 | |
| KE7DJD | 2026-08-30 23:25:49 | 43.54564 | -116.03288 | 90° | 66km/h | 8550m | 5.2m/s | -29.4°C | 59.8% | 0hPa | 0V | 00:00:00 | 00:00:00 | 00:00:00 | |
| KE7DJD | 2026-08-30 23:25:28 | 43.54593 | -116.03807 | 110° | 66km/h | 8446m | 3.5m/s | -28.6°C | 57.8% | 0hPa | 0V | 00:00:00 | 00:00:00 | 00:00:00 | |
| KE7DJD | 2026-08-30 23:25:07 | 43.54647 | -116.04325 | 88° | 73km/h | 8320m | 2.7m/s | -27.5°C | 62.4% | 0hPa | 0V | 00:00:00 | 00:00:00 | 00:00:00 | |
| KE7DJD | 2026-08-30 23:24:46 | 43.54689 | -116.04829 | 94° | 77km/h | 8201m | 3.8m/s | -26.6°C | 59.4% | 0hPa | 0V | 00:00:00 | 00:00:00 | 00:00:00 | |
| KE7DJD | 2026-08-30 23:24:26 | 43.54735 | -116.05284 | 91° | 60km/h | 8101m | 3.8m/s | -25.7°C | 56.5% | 0hPa | 0V | 00:00:00 | 00:00:00 | 00:00:00 | |
| KE7DJD | 2026-08-30 23:24:05 | 43.54766 | -116.05754 | 85° | 57km/h | 7988m | 9.2m/s | -24.9°C | 52.8% | 0hPa | 0V | 00:00:00 | 00:00:00 | 00:00:00 | |
| KE7DJD | 2026-08-30 23:23:45 | 43.54819 | -116.06190 | 102° | 66km/h | 7867m | 5.3m/s | -24.0°C | 53.0% | 0hPa | 0V | 00:00:00 | 00:00:00 | 00:00:00 | |
| KE7DJD | 2026-08-30 23:23:24 | 43.54844 | -116.06660 | 101° | 78km/h | 7754m | 6.1m/s | -23.3°C | 55.9% | 0hPa | 0V | 00:00:00 | 00:00:00 | 00:00:00 | |
| KE7DJD | 2026-08-30 23:23:04 | 43.54867 | -116.07061 | 98° | 66km/h | 7633m | 7.3m/s | -22.4°C | 50.9% | 0hPa | 0V | 00:00:00 | 00:00:00 | 00:00:00 | |
| KE7DJD | 2026-08-30 23:22:44 | 43.54872 | -116.07485 | 95° | 55km/h | 7514m | 4.0m/s | -21.8°C | 54.4% | 0hPa | 0V | 00:00:00 | 00:00:00 | 00:00:00 | |
| KE7DJD | 2026-08-30 23:22:24 | 43.54855 | -116.07928 | 78° | 68km/h | 7396m | 6.8m/s | -21.2°C | 54.8% | 0hPa | 0V | 00:00:00 | 00:00:00 | 00:00:00 | |
| KE7DJD | 2026-08-30 23:22:04 | 43.54839 | -116.08402 | 101° | 68km/h | 7265m | 4.7m/s | -20.5°C | 51.7% | 0hPa | 0V | 00:00:00 | 00:00:00 | 00:00:00 | |
| KE7DJD | 2026-08-30 23:21:44 | 43.54836 | -116.08832 | 97° | 58km/h | 7141m | 3.0m/s | -19.9°C | 50.9% | 0hPa | 0V | 00:00:00 | 00:00:00 | 00:00:00 | |
| KE7DJD | 2026-08-30 23:21:23 | 43.54849 | -116.09212 | 92° | 71km/h | 7012m | 4.8m/s | -18.8°C | 47.0% | 0hPa | 0V | 00:00:00 | 00:00:00 | 00:00:00 | |
| KE7DJD | 2026-08-30 23:21:01 | 43.54892 | -116.09616 | 91° | 57km/h | 6866m | 6.5m/s | -17.8°C | 45.8% | 0hPa | 0V | 00:00:00 | 00:00:00 | 00:00:00 | |
| KE7DJD | 2026-08-30 23:20:40 | 43.54911 | -116.10049 | 99° | 40km/h | 6732m | 4.5m/s | -17.3°C | 49.4% | 0hPa | 0V | 00:00:00 | 00:00:00 | 00:00:00 | |
| KE7DJD | 2026-08-30 23:20:20 | 43.54943 | -116.10508 | 100° | 60km/h | 6602m | 4.3m/s | -16.4°C | 49.5% | 0hPa | 0V | 00:00:00 | 00:00:00 | 00:00:00 | |
| KE7DJD | 2026-08-30 23:19:59 | 43.54973 | -116.10958 | 83° | 64km/h | 6475m | 6.0m/s | -15.8°C | 50.6% | 0hPa | 0V | 00:00:00 | 00:00:00 | 00:00:00 | |
| KE7DJD | 2026-08-30 23:19:38 | 43.54954 | -116.11352 | 82° | 46km/h | 6342m | 6.6m/s | -14.7°C | 46.4% | 0hPa | 0V | 00:00:00 | 00:00:00 | 00:00:00 | |
| KE7DJD | 2026-08-30 23:19:17 | 43.54933 | -116.11749 | 85° | 62km/h | 6194m | 8.6m/s | -13.8°C | 44.9% | 0hPa | 0V | 00:00:00 | 00:00:00 | 00:00:00 | |
| KE7DJD | 2026-08-30 23:18:56 | 43.54948 | -116.12157 | 108° | 55km/h | 6067m | 7.0m/s | -12.9°C | 46.4% | 0hPa | 0V | 00:00:00 | 00:00:00 | 00:00:00 | |
| KE7DJD | 2026-08-30 23:18:35 | 43.54988 | -116.12505 | 107° | 37km/h | 5951m | 6.3m/s | -12.1°C | 44.9% | 0hPa | 0V | 00:00:00 | 00:00:00 | 00:00:00 | |
| KE7DJD | 2026-08-30 23:18:14 | 43.55042 | -116.12837 | 86° | 44km/h | 5816m | 5.0m/s | -11.0°C | 44.5% | 0hPa | 0V | 00:00:00 | 00:00:00 | 00:00:00 | |
| KE7DJD | 2026-08-30 23:17:53 | 43.55076 | -116.13189 | 97° | 38km/h | 5697m | 5.8m/s | -9.9°C | 37.8% | 0hPa | 0V | 00:00:00 | 00:00:00 | 00:00:00 | |
| KE7DJD | 2026-08-30 23:17:33 | 43.55120 | -116.13479 | 102° | 42km/h | 5581m | 5.1m/s | -8.9°C | 35.2% | 0hPa | 0V | 00:00:00 | 00:00:00 | 00:00:00 | |
| KE7DJD | 2026-08-30 23:17:12 | 43.55143 | -116.13761 | 97° | 55km/h | 5458m | 6.1m/s | -7.9°C | 30.9% | 0hPa | 0V | 00:00:00 | 00:00:00 | 00:00:00 | |
| KE7DJD | 2026-08-30 23:16:51 | 43.55206 | -116.14053 | 113° | 42km/h | 5336m | 4.6m/s | -6.9°C | 28.4% | 0hPa | 0V | 00:00:00 | 00:00:00 | 00:00:00 | |
| KE7DJD | 2026-08-30 23:16:30 | 43.55221 | -116.14300 | 97° | 42km/h | 5214m | 7.1m/s | -6.0°C | 24.3% | 0hPa | 0V | 00:00:00 | 00:00:00 | 00:00:00 | |
| KE7DJD | 2026-08-30 23:16:09 | 43.55249 | -116.14532 | 114° | 37km/h | 5092m | 5.0m/s | -5.5°C | 13.2% | 0hPa | 0V | 00:00:00 | 00:00:00 | 00:00:00 | |
| KE7DJD | 2026-08-30 23:15:49 | 43.55283 | -116.14778 | 90° | 35km/h | 4982m | 5.0m/s | -4.4°C | 13.8% | 0hPa | 0V | 00:00:00 | 00:00:00 | 00:00:00 | |
| KE7DJD | 2026-08-30 23:15:28 | 43.55322 | -116.15015 | 104° | 42km/h | 4863m | 6.9m/s | -3.8°C | 4.7% | 0hPa | 0V | 00:00:00 | 00:00:00 | 00:00:00 | |
| KE7DJD | 2026-08-30 23:15:08 | 43.55337 | -116.15279 | 81° | 24km/h | 4755m | 4.7m/s | -3.0°C | 7.3% | 0hPa | 0V | 00:00:00 | 00:00:00 | 00:00:00 | |
| KE7DJD | 2026-08-30 23:14:47 | 43.55386 | -116.15536 | 112° | 27km/h | 4639m | 4.0m/s | -2.8°C | 4.0% | 0hPa | 0V | 00:00:00 | 00:00:00 | 00:00:00 | |
| KE7DJD | 2026-08-30 23:14:26 | 43.55409 | -116.15801 | 86° | 29km/h | 4531m | 3.5m/s | -2.3°C | 4.2% | 0hPa | 0V | 00:00:00 | 00:00:00 | 00:00:00 | |
| KE7DJD | 2026-08-30 23:14:05 | 43.55435 | -116.16038 | 88° | 33km/h | 4409m | 5.1m/s | -1.3°C | 4.1% | 0hPa | 0V | 00:00:00 | 00:00:00 | 00:00:00 | |
| KE7DJD | 2026-08-30 23:13:45 | 43.55476 | -116.16299 | 110° | 31km/h | 4304m | 3.1m/s | -0.4°C | 3.8% | 0hPa | 0V | 00:00:00 | 00:00:00 | 00:00:00 | |
| KE7DJD | 2026-08-30 23:13:25 | 43.55517 | -116.16532 | 85° | 31km/h | 4202m | 5.2m/s | 0.0°C | 4.8% | 0hPa | 0V | 00:00:00 | 00:00:00 | 00:00:00 | |
| KE7DJD | 2026-08-30 23:13:04 | 43.55540 | -116.16732 | 99° | 29km/h | 4097m | 4.8m/s | 0.8°C | 3.7% | 0hPa | 0V | 00:00:00 | 00:00:00 | 00:00:00 | |
| KE7DJD | 2026-08-30 23:12:44 | 43.55575 | -116.16922 | 89° | 26km/h | 3996m | 6.2m/s | 1.4°C | 2.8% | 0hPa | 0V | 00:00:00 | 00:00:00 | 00:00:00 | |
| KE7DJD | 2026-08-30 23:12:23 | 43.55608 | -116.17124 | 105° | 24km/h | 3886m | 5.0m/s | 2.2°C | 2.5% | 0hPa | 0V | 00:00:00 | 00:00:00 | 00:00:00 | |
| KE7DJD | 2026-08-30 23:12:02 | 43.55619 | -116.17378 | 81° | 27km/h | 3773m | 4.2m/s | 2.1°C | 2.5% | 0hPa | 0V | 00:00:00 | 00:00:00 | 00:00:00 | |
| KE7DJD | 2026-08-30 23:11:42 | 43.55650 | -116.17562 | 112° | 44km/h | 3669m | 4.0m/s | 2.7°C | 2.7% | 0hPa | 0V | 00:00:00 | 00:00:00 | 00:00:00 | |
| KE7DJD | 2026-08-30 23:11:21 | 43.55695 | -116.17753 | 81° | 38km/h | 3563m | 4.7m/s | 3.3°C | 3.0% | 0hPa | 0V | 00:00:00 | 00:00:00 | 00:00:00 | |
| KE7DJD | 2026-08-30 23:11:00 | 43.55727 | -116.18000 | 116° | 35km/h | 3459m | 3.7m/s | 3.8°C | 3.6% | 0hPa | 0V | 00:00:00 | 00:00:00 | 00:00:00 | |
| KE7DJD | 2026-08-30 23:10:39 | 43.55756 | -116.18230 | 117° | 38km/h | 3367m | 5.3m/s | 3.3°C | 9.2% | 0hPa | 0V | 00:00:00 | 00:00:00 | 00:00:00 | |
| KE7DJD | 2026-08-30 23:10:18 | 43.55803 | -116.18520 | 101° | 38km/h | 3278m | 5.5m/s | 3.8°C | 12.8% | 0hPa | 0V | 00:00:00 | 00:00:00 | 00:00:00 | |
| KE7DJD | 2026-08-30 23:09:37 | 43.55914 | -116.19035 | 105° | 40km/h | 3082m | 3.5m/s | 5.0°C | 14.0% | 0hPa | 0V | 00:00:00 | 00:00:00 | 00:00:00 | |
| KE7DJD | 2026-08-30 23:09:16 | 43.55962 | -116.19279 | 108° | 37km/h | 2971m | 6.7m/s | 5.3°C | 14.7% | 0hPa | 0V | 00:00:00 | 00:00:00 | 00:00:00 | |
| KE7DJD | 2026-08-30 23:08:56 | 43.55997 | -116.19453 | 98° | 35km/h | 2852m | 6.1m/s | 6.2°C | 13.8% | 0hPa | 0V | 00:00:00 | 00:00:00 | 00:00:00 | |
| KE7DJD | 2026-08-30 23:08:35 | 43.55999 | -116.19636 | 100° | 18km/h | 2745m | 5.6m/s | 6.9°C | 17.0% | 0hPa | 0V | 00:00:00 | 00:00:00 | 00:00:00 | |
| KE7DJD | 2026-08-30 23:08:14 | 43.56006 | -116.19779 | 88° | 31km/h | 2636m | 5.7m/s | 7.7°C | 16.3% | 0hPa | 0V | 00:00:00 | 00:00:00 | 00:00:00 | |
| KE7DJD | 2026-08-30 23:07:53 | 43.56018 | -116.19980 | 134° | 22km/h | 2512m | 6.9m/s | 8.9°C | 6.4% | 0hPa | 0V | 00:00:00 | 00:00:00 | 00:00:00 | |
| KE7DJD | 2026-08-30 23:07:33 | 43.56043 | -116.20139 | 111° | 33km/h | 2383m | 5.2m/s | 9.7°C | 9.2% | 0hPa | 0V | 00:00:00 | 00:00:00 | 00:00:00 | |
| KE7DJD | 2026-08-30 23:07:12 | 43.56089 | -116.20271 | 128° | 22km/h | 2267m | 4.8m/s | 10.4°C | 7.4% | 0hPa | 0V | 00:00:00 | 00:00:00 | 00:00:00 | |
| KE7DJD | 2026-08-30 23:06:51 | 43.56144 | -116.20407 | 133° | 26km/h | 2159m | 4.9m/s | 11.2°C | 7.5% | 0hPa | 0V | 00:00:00 | 00:00:00 | 00:00:00 | |
| KE7DJD | 2026-08-30 23:06:31 | 43.56199 | -116.20515 | 133° | 11km/h | 2052m | 4.6m/s | 11.9°C | 7.4% | 0hPa | 0V | 00:00:00 | 00:00:00 | 00:00:00 | |
| KE7DJD | 2026-08-30 23:06:10 | 43.56274 | -116.20604 | 153° | 22km/h | 1945m | 5.2m/s | 12.6°C | 8.5% | 0hPa | 0V | 00:00:00 | 00:00:00 | 00:00:00 | |
| KE7DJD | 2026-08-30 23:05:50 | 43.56321 | -116.20714 | 178° | 16km/h | 1838m | 4.2m/s | 13.4°C | 10.7% | 0hPa | 0V | 00:00:00 | 00:00:00 | 00:00:00 | |
| KE7DJD | 2026-08-30 23:05:29 | 43.56384 | -116.20767 | 189° | 16km/h | 1724m | 5.9m/s | 13.5°C | 27.8% | 0hPa | 0V | 00:00:00 | 00:00:00 | 00:00:00 | |
| KE7DJD | 2026-08-30 23:05:08 | 43.56438 | -116.20792 | 165° | 20km/h | 1552m | 7.2m/s | 14.9°C | 0% | 0hPa | 0V | 00:00:00 | 00:00:00 | 00:00:00 | |
| KE7DJD | 2026-08-30 23:04:48 | 43.56505 | -116.20844 | 157° | 13km/h | 1392m | 8.8m/s | 0°C | 0% | 0hPa | 0V | 00:00:00 | 00:00:00 | 00:00:00 | |
| KE7DJD | 2026-08-30 23:04:27 | 43.56598 | -116.20934 | 125° | 13km/h | 1239m | 7.5m/s | 0°C | 0% | 0hPa | 0V | 00:00:00 | 00:00:00 | 00:00:00 |